Time;durP1;ratioP1;P1;durP2;ratioP2;P2;SDS_P1;SDS_P2;PMS_P1;PMS_P2;Temp;Humidity;BMP_temperature;BMP_pressure;BME280_temperature;BME280_humidity;BME280_pressure;Samples;Min_cycle;Max_cycle;Signal;HPM_P1;HPM_P2
2021/12/20 00:01:44;;;;;;;16.70;13.18;;;6.10;99.90;;;;;;5013402;28;20470;-84
2021/12/20 00:04:09;;;;;;;15.57;11.32;;;6.20;99.90;;;;;;5013674;28;20166;-83
2021/12/20 00:06:35;;;;;;;15.30;10.97;;;6.20;99.90;;;;;;5013714;28;20175;-84
2021/12/20 00:09:01;;;;;;;25.33;12.87;;;6.20;99.90;;;;;;5013568;28;20190;-84
2021/12/20 00:11:26;;;;;;;18.03;11.23;;;6.20;99.90;;;;;;5013213;28;20217;-84
2021/12/20 00:13:52;;;;;;;15.73;12.73;;;6.20;99.90;;;;;;5013460;28;20183;-85
2021/12/20 00:16:17;;;;;;;20.20;12.60;;;6.10;99.90;;;;;;4995813;28;20201;-85
2021/12/20 00:18:43;;;;;;;17.30;12.63;;;6.20;99.90;;;;;;5012241;28;20270;-85
2021/12/20 00:21:10;;;;;;;16.45;12.48;;;6.20;99.90;;;;;;4995539;28;20663;-84
2021/12/20 00:23:36;;;;;;;18.35;11.93;;;6.20;99.90;;;;;;5013464;28;20207;-85
2021/12/20 00:26:01;;;;;;;20.67;12.13;;;6.20;99.90;;;;;;5012162;28;20261;-84
2021/12/20 00:28:27;;;;;;;17.33;12.20;;;6.20;99.90;;;;;;5012094;28;20205;-86
2021/12/20 00:30:53;;;;;;;18.90;11.10;;;6.20;99.90;;;;;;5013335;28;20202;-86
2021/12/20 00:33:18;;;;;;;20.23;11.10;;;6.20;99.90;;;;;;4995806;28;20643;-85
2021/12/20 00:35:44;;;;;;;18.03;12.60;;;6.10;99.90;;;;;;5013318;28;20210;-86
2021/12/20 00:40:54;;;;;;;28.52;12.82;;;6.10;99.90;;;;;;5013044;28;20221;-81
2021/12/20 00:43:20;;;;;;;14.57;10.67;;;6.10;99.90;;;;;;5012129;28;20513;-81
2021/12/20 00:45:46;;;;;;;14.40;10.00;;;6.10;99.90;;;;;;5013217;28;20168;-81
2021/12/20 00:48:12;;;;;;;14.50;11.00;;;6.10;99.90;;;;;;5013064;28;20899;-81
2021/12/20 00:50:40;;;;;;;14.43;9.50;;;6.10;99.90;;;;;;5012874;28;20194;-81
2021/12/20 00:53:07;;;;;;;22.25;10.63;;;6.10;99.90;;;;;;5011871;28;20647;-81
2021/12/20 00:55:32;;;;;;;15.48;10.27;;;6.20;99.90;;;;;;5013167;28;20175;-80
2021/12/20 00:57:59;;;;;;;15.07;9.73;;;6.20;99.90;;;;;;5013831;28;20515;-80
2021/12/20 01:00:28;;;;;;;13.80;8.68;;;6.20;99.90;;;;;;5016401;28;20198;-80
2021/12/20 01:02:55;;;;;;;13.07;8.48;;;6.20;99.90;;;;;;5016836;28;20179;-80
2021/12/20 01:05:22;;;;;;;20.67;8.48;;;6.20;99.90;;;;;;5016684;28;20184;-80
2021/12/20 01:07:49;;;;;;;18.85;9.05;;;6.20;99.90;;;;;;5016570;28;20640;-80
2021/12/20 01:10:16;;;;;;;16.80;9.35;;;6.10;99.90;;;;;;5016073;28;20179;-80
2021/12/20 01:12:47;;;;;;;14.25;9.57;;;6.20;99.90;;;;;;5015272;28;20187;-80
2021/12/20 01:15:22;;;;;;;14.07;8.32;;;6.10;99.90;;;;;;5016502;28;20167;-80
2021/12/20 01:17:49;;;;;;;11.80;8.57;;;6.10;99.90;;;;;;5016406;28;20533;-80
2021/12/20 01:20:15;;;;;;;16.85;9.50;;;6.10;99.90;;;;;;5031123;28;20174;-80
2021/12/20 01:22:46;;;;;;;12.02;7.25;;;6.20;99.90;;;;;;5016294;28;20210;-80
2021/12/20 01:25:12;;;;;;;12.82;8.20;;;6.10;99.90;;;;;;5031588;28;20186;-80
2021/12/20 01:27:38;;;;;;;16.88;8.75;;;6.00;99.90;;;;;;5016159;28;20553;-80
2021/12/20 01:30:06;;;;;;;11.73;8.10;;;6.10;99.90;;;;;;5016071;28;20171;-80
2021/12/20 01:32:32;;;;;;;10.90;6.72;;;6.00;99.90;;;;;;5016256;28;20185;-80
2021/12/20 01:34:58;;;;;;;12.60;6.60;;;6.00;99.90;;;;;;5016360;28;20322;-80
2021/12/20 01:37:23;;;;;;;9.50;5.90;;;6.00;99.90;;;;;;5016229;28;20656;-80
2021/12/20 01:39:49;;;;;;;9.30;7.07;;;6.10;99.90;;;;;;5016974;28;20175;-80
2021/12/20 01:42:19;;;;;;;10.27;7.47;;;6.10;99.90;;;;;;5016947;28;20246;-80
2021/12/20 01:44:46;;;;;;;10.10;7.70;;;6.10;99.90;;;;;;5015956;28;20615;-80
2021/12/20 01:47:14;;;;;;;10.27;6.18;;;6.10;99.90;;;;;;5015987;28;20194;-80
2021/12/20 01:49:54;;;;;;;9.98;6.25;;;6.00;99.90;;;;;;5015571;28;20666;-80
2021/12/20 01:52:22;;;;;;;10.52;5.70;;;6.00;99.90;;;;;;5015953;28;20580;-80
2021/12/20 01:54:48;;;;;;;13.00;6.68;;;6.00;99.90;;;;;;5015674;28;20223;-80
2021/12/20 01:57:13;;;;;;;10.90;6.30;;;6.00;99.90;;;;;;5015913;28;20187;-80
2021/12/20 01:59:40;;;;;;;10.50;6.10;;;6.00;99.90;;;;;;5015500;28;20278;-80
2021/12/20 02:02:06;;;;;;;14.13;6.43;;;6.00;99.90;;;;;;5015562;28;20208;-80
2021/12/20 02:04:40;;;;;;;7.85;6.13;;;6.00;99.90;;;;;;5015578;28;20231;-80
2021/12/20 02:07:06;;;;;;;10.10;5.63;;;6.00;99.90;;;;;;5015447;28;20189;-80
2021/12/20 02:09:32;;;;;;;5.13;4.63;;;6.00;99.90;;;;;;5012744;28;20179;-80
2021/12/20 02:11:58;;;;;;;11.13;5.03;;;6.00;99.90;;;;;;5015484;28;20438;-80
2021/12/20 02:14:25;;;;;;;9.57;6.53;;;6.00;99.90;;;;;;5015418;28;20182;-80
2021/12/20 02:16:50;;;;;;;13.93;6.63;;;6.00;99.90;;;;;;5030580;28;20239;-80
2021/12/20 02:19:18;;;;;;;11.87;6.70;;;6.00;99.90;;;;;;5013694;28;20590;-80
2021/12/20 02:21:45;;;;;;;10.88;5.20;;;6.00;99.90;;;;;;5015047;28;20208;-80
2021/12/20 02:24:11;;;;;;;7.68;5.47;;;6.00;99.90;;;;;;5015225;28;20234;-79
2021/12/20 02:26:37;;;;;;;13.27;5.68;;;6.00;99.90;;;;;;5015166;28;20183;-80
2021/12/20 02:29:07;;;;;;;10.10;5.80;;;6.00;99.90;;;;;;5014864;28;20192;-80
2021/12/20 02:37:19;;;;;;;9.25;5.30;;;5.90;99.90;;;;;;5014949;28;20190;-80
2021/12/20 02:39:46;;;;;;;11.45;5.05;;;5.90;99.90;;;;;;5028101;28;20643;-80
2021/12/20 02:42:16;;;;;;;11.48;4.57;;;5.90;99.90;;;;;;5014880;28;20210;-80
2021/12/20 02:45:06;;;;;;;10.80;6.20;;;5.90;99.90;;;;;;5015052;28;20155;-80
2021/12/20 02:47:32;;;;;;;11.98;5.40;;;5.90;99.90;;;;;;5014745;28;20155;-80
2021/12/20 02:49:58;;;;;;;6.20;5.30;;;5.90;99.90;;;;;;5014553;28;20240;-80
2021/12/20 02:52:24;;;;;;;11.73;5.57;;;5.90;99.90;;;;;;5014620;28;20198;-80
2021/12/20 02:54:49;;;;;;;15.33;6.20;;;6.00;99.90;;;;;;5014746;28;20678;-80
2021/12/20 02:57:16;;;;;;;8.60;5.53;;;5.90;99.90;;;;;;5014479;28;20418;-81
2021/12/20 02:59:41;;;;;;;12.23;5.55;;;5.90;99.90;;;;;;5014249;28;20184;-81
2021/12/20 03:02:09;;;;;;;10.47;6.03;;;5.90;99.90;;;;;;5014408;28;20616;-80
2021/12/20 03:04:35;;;;;;;7.75;5.28;;;5.90;99.90;;;;;;5014383;28;20498;-81
2021/12/20 03:07:06;;;;;;;10.00;5.35;;;5.90;99.90;;;;;;5029707;28;20185;-81
2021/12/20 03:09:36;;;;;;;10.32;5.03;;;5.90;99.90;;;;;;5014052;28;20173;-80
2021/12/20 03:12:04;;;;;;;8.18;4.82;;;5.80;99.90;;;;;;5014410;28;20196;-80
2021/12/20 03:14:36;;;;;;;9.32;5.20;;;5.80;99.90;;;;;;5014289;28;20183;-80
2021/12/20 03:17:03;;;;;;;10.43;5.00;;;5.90;99.90;;;;;;5014306;28;20674;-80
2021/12/20 03:19:29;;;;;;;14.68;6.25;;;5.90;99.90;;;;;;5013787;28;20190;-80
2021/12/20 03:21:56;;;;;;;9.07;5.85;;;5.80;99.90;;;;;;5013600;28;20229;-80
2021/12/20 03:24:21;;;;;;;18.15;4.85;;;5.80;99.90;;;;;;5014069;28;20182;-80
2021/12/20 03:26:47;;;;;;;15.57;5.50;;;5.80;99.90;;;;;;5014325;28;20178;-80
2021/12/20 03:29:13;;;;;;;10.97;4.70;;;5.90;99.90;;;;;;5028815;28;20945;-80
2021/12/20 03:31:39;;;;;;;10.50;4.90;;;5.80;99.90;;;;;;5029399;28;20940;-80
2021/12/20 03:34:06;;;;;;;14.00;5.13;;;5.80;99.90;;;;;;5014717;28;20187;-80
2021/12/20 03:36:32;;;;;;;9.50;4.45;;;5.80;99.90;;;;;;5029051;28;20267;-80
2021/12/20 03:38:57;;;;;;;17.27;4.10;;;5.80;99.90;;;;;;5016529;28;20210;-80
2021/12/20 03:41:23;;;;;;;11.13;5.27;;;5.80;99.90;;;;;;5031551;28;20573;-81
2021/12/20 03:43:49;;;;;;;22.53;4.57;;;5.80;99.90;;;;;;5013800;28;20177;-80
2021/12/20 03:46:15;;;;;;;12.37;3.37;;;5.80;99.90;;;;;;5013693;28;20926;-80
2021/12/20 03:48:41;;;;;;;15.33;4.80;;;5.80;99.90;;;;;;5013773;28;20418;-80
2021/12/20 03:51:06;;;;;;;10.53;4.10;;;5.80;99.90;;;;;;5013317;28;20667;-80
2021/12/20 03:53:34;;;;;;;14.40;3.60;;;5.70;99.90;;;;;;5013600;28;20182;-80
2021/12/20 03:56:01;;;;;;;16.42;4.47;;;5.80;99.90;;;;;;5028821;28;20180;-80
2021/12/20 03:58:28;;;;;;;8.88;3.08;;;5.80;99.90;;;;;;5028733;28;20180;-79
2021/12/20 04:00:58;;;;;;;16.80;4.43;;;5.80;99.90;;;;;;5011910;28;20218;-80
2021/12/20 04:03:25;;;;;;;16.90;4.20;;;5.70;99.90;;;;;;5012599;28;20183;-80
2021/12/20 04:05:51;;;;;;;17.13;5.43;;;5.80;99.90;;;;;;5013559;28;20518;-80
2021/12/20 04:08:17;;;;;;;19.73;6.27;;;5.80;99.90;;;;;;5013522;28;20186;-79
2021/12/20 04:10:43;;;;;;;15.43;4.75;;;5.80;99.90;;;;;;5028452;28;20434;-79
2021/12/20 04:13:09;;;;;;;14.93;5.27;;;5.80;99.90;;;;;;5013385;28;20658;-80
2021/12/20 04:15:36;;;;;;;20.33;6.10;;;5.80;99.90;;;;;;5028467;28;20177;-81
2021/12/20 04:18:02;;;;;;;17.65;5.28;;;5.80;99.90;;;;;;5028610;28;20182;-80
2021/12/20 04:20:27;;;;;;;14.77;5.15;;;5.90;99.90;;;;;;5012873;28;20253;-80
2021/12/20 04:22:53;;;;;;;12.60;6.00;;;5.80;99.90;;;;;;5012142;28;20183;-79
2021/12/20 04:25:19;;;;;;;14.30;4.53;;;5.80;99.90;;;;;;5012029;28;20647;-80
2021/12/20 04:27:44;;;;;;;13.90;4.70;;;5.90;99.90;;;;;;5012989;28;20191;-80
2021/12/20 04:30:11;;;;;;;12.13;4.20;;;5.80;99.90;;;;;;5011638;28;20192;-80
2021/12/20 04:32:39;;;;;;;19.38;4.63;;;5.80;99.90;;;;;;5013627;28;20179;-80
2021/12/20 04:35:06;;;;;;;13.63;4.10;;;5.80;99.90;;;;;;5017301;28;20176;-81
2021/12/20 04:37:32;;;;;;;14.70;4.72;;;5.70;99.90;;;;;;5017177;28;20187;-80
2021/12/20 04:39:58;;;;;;;15.67;4.30;;;5.70;99.90;;;;;;5016835;28;20703;-80
2021/12/20 04:42:24;;;;;;;28.13;4.95;;;5.70;99.90;;;;;;5016894;28;20302;-79
2021/12/20 04:44:50;;;;;;;21.97;4.20;;;5.70;99.90;;;;;;5032455;28;20266;-80
2021/12/20 04:47:18;;;;;;;18.43;4.07;;;5.70;99.90;;;;;;5017027;28;20182;-80
2021/12/20 04:49:43;;;;;;;12.73;4.38;;;5.70;99.90;;;;;;5031966;28;20598;-79
2021/12/20 04:52:09;;;;;;;18.57;4.87;;;5.70;99.90;;;;;;5016890;28;20281;-80
2021/12/20 04:54:35;;;;;;;13.52;3.45;;;5.70;99.90;;;;;;5016970;28;20202;-79
2021/12/20 04:57:01;;;;;;;18.60;3.93;;;5.70;99.90;;;;;;5032113;28;20190;-79
2021/12/20 04:59:26;;;;;;;14.80;3.97;;;5.70;99.90;;;;;;5016457;28;20187;-79
2021/12/20 05:01:52;;;;;;;17.43;3.47;;;5.70;99.90;;;;;;5016636;28;20218;-80
2021/12/20 05:04:17;;;;;;;24.43;5.43;;;5.70;99.90;;;;;;5016541;28;20236;-80
2021/12/20 05:06:43;;;;;;;16.80;5.17;;;5.70;99.90;;;;;;5016628;28;20195;-80
2021/12/20 05:09:09;;;;;;;13.97;3.33;;;5.70;99.90;;;;;;5016512;28;20182;-79
2021/12/20 05:11:35;;;;;;;13.73;3.90;;;5.70;99.90;;;;;;5016348;28;20729;-79
2021/12/20 05:14:02;;;;;;;14.93;3.30;;;5.60;99.90;;;;;;5016455;28;20179;-79
2021/12/20 05:16:28;;;;;;;19.40;3.95;;;5.70;99.90;;;;;;5016323;28;20517;-79
2021/12/20 05:18:54;;;;;;;26.77;4.18;;;5.70;99.90;;;;;;5016352;28;20187;-80
2021/12/20 05:21:20;;;;;;;9.47;2.97;;;5.70;99.90;;;;;;5031053;28;20213;-79
2021/12/20 05:23:46;;;;;;;10.13;3.70;;;5.70;99.90;;;;;;5016415;28;20405;-80
2021/12/20 05:26:11;;;;;;;10.00;3.83;;;5.60;99.90;;;;;;5016161;28;20414;-81
2021/12/20 05:28:37;;;;;;;16.03;3.77;;;5.60;99.90;;;;;;5015985;28;20197;-79
2021/12/20 05:31:02;;;;;;;17.20;4.83;;;5.50;99.90;;;;;;5014650;28;20294;-79
2021/12/20 05:33:29;;;;;;;16.60;3.70;;;5.50;99.90;;;;;;5017552;28;20183;-79
2021/12/20 05:35:54;;;;;;;11.10;3.95;;;5.50;99.90;;;;;;5032166;28;20185;-79
2021/12/20 05:38:20;;;;;;;13.03;4.47;;;5.50;99.90;;;;;;5016078;28;20184;-80
2021/12/20 05:40:46;;;;;;;9.40;3.60;;;5.50;99.90;;;;;;5015620;28;20562;-80
2021/12/20 05:43:12;;;;;;;14.17;3.60;;;5.50;99.90;;;;;;5016108;28;20183;-80
2021/12/20 05:45:37;;;;;;;13.10;3.67;;;5.50;99.90;;;;;;5015855;28;20777;-80
2021/12/20 05:48:04;;;;;;;12.00;4.73;;;5.50;99.90;;;;;;5015951;28;20410;-80
2021/12/20 05:50:29;;;;;;;21.30;4.35;;;5.40;99.90;;;;;;5015183;28;20194;-80
2021/12/20 05:52:55;;;;;;;19.53;4.53;;;5.60;99.90;;;;;;5015681;28;20234;-80
2021/12/20 05:55:21;;;;;;;12.00;4.10;;;5.50;99.90;;;;;;5014504;28;20591;-80
2021/12/20 05:57:47;;;;;;;15.33;4.20;;;5.60;99.90;;;;;;5014443;28;20429;-80
2021/12/20 06:00:19;;;;;;;15.48;4.80;;;5.60;99.90;;;;;;5015579;28;20182;-80
2021/12/20 06:02:47;;;;;;;12.48;4.13;;;5.50;99.90;;;;;;5015642;28;20202;-80
2021/12/20 06:05:14;;;;;;;12.20;4.10;;;5.50;99.90;;;;;;5014435;28;20190;-80
2021/12/20 06:07:41;;;;;;;10.55;4.28;;;5.50;99.90;;;;;;5030794;28;20703;-80
2021/12/20 06:10:13;;;;;;;16.50;5.40;;;5.50;99.90;;;;;;5015159;28;20206;-80
2021/12/20 06:12:39;;;;;;;10.05;4.40;;;5.50;99.90;;;;;;5015370;28;20190;-80
2021/12/20 06:15:06;;;;;;;14.13;4.45;;;5.50;99.90;;;;;;5015392;28;20221;-80
2021/12/20 06:17:32;;;;;;;13.00;4.88;;;5.50;99.90;;;;;;5015408;28;20213;-80
2021/12/20 06:19:58;;;;;;;15.43;4.30;;;5.50;99.90;;;;;;5015028;28;20215;-80
2021/12/20 06:22:23;;;;;;;13.47;3.70;;;5.50;99.90;;;;;;5013911;28;20238;-80
2021/12/20 06:24:49;;;;;;;13.63;4.33;;;5.50;99.90;;;;;;5013501;28;20419;-80
2021/12/20 06:27:14;;;;;;;12.33;3.47;;;5.50;99.90;;;;;;5030278;28;20210;-80
2021/12/20 06:29:40;;;;;;;9.67;3.83;;;5.40;99.90;;;;;;5014853;28;20583;-80
2021/12/20 06:32:06;;;;;;;15.50;4.70;;;5.40;99.90;;;;;;5030252;28;20699;-80
2021/12/20 06:34:31;;;;;;;8.50;3.70;;;5.40;99.90;;;;;;5015044;28;20187;-79
2021/12/20 06:36:57;;;;;;;10.63;3.77;;;5.40;99.90;;;;;;5014752;28;20176;-80
2021/12/20 06:39:23;;;;;;;17.23;4.00;;;5.40;99.90;;;;;;5014560;28;20186;-80
2021/12/20 06:41:50;;;;;;;14.70;4.63;;;5.40;99.90;;;;;;5014677;28;20216;-80
2021/12/20 06:44:17;;;;;;;14.57;3.67;;;5.40;99.90;;;;;;5014849;28;20410;-79
2021/12/20 06:46:43;;;;;;;16.92;3.80;;;5.40;99.90;;;;;;5014718;28;20179;-79
2021/12/20 06:49:10;;;;;;;12.50;3.57;;;5.40;99.90;;;;;;5014546;28;20230;-80
2021/12/20 06:51:45;;;;;;;9.35;3.80;;;5.30;99.90;;;;;;5014345;28;20302;-81
2021/12/20 06:54:13;;;;;;;13.40;3.20;;;5.30;99.90;;;;;;5014712;28;20183;-81
2021/12/20 06:56:38;;;;;;;18.10;3.60;;;5.30;99.90;;;;;;5014005;28;20249;-81
2021/12/20 06:59:04;;;;;;;7.70;3.60;;;5.30;99.90;;;;;;5014583;28;20655;-82
2021/12/20 07:01:30;;;;;;;13.70;3.60;;;5.30;99.90;;;;;;5014235;28;20720;-81
2021/12/20 07:03:56;;;;;;;17.20;3.93;;;5.30;99.90;;;;;;5014557;28;20425;-81
2021/12/20 07:06:22;;;;;;;11.80;3.90;;;5.30;99.90;;;;;;5014372;28;20414;-81
2021/12/20 07:08:47;;;;;;;13.63;3.55;;;5.30;99.90;;;;;;5014455;28;20693;-81
2021/12/20 07:11:13;;;;;;;8.30;2.67;;;5.30;99.90;;;;;;5013911;28;20297;-81
2021/12/20 07:13:39;;;;;;;12.47;3.77;;;5.30;99.90;;;;;;5014530;28;20209;-81
2021/12/20 07:16:06;;;;;;;17.50;4.07;;;5.30;99.90;;;;;;5014440;28;20433;-81
2021/12/20 07:18:33;;;;;;;8.23;3.55;;;5.30;99.90;;;;;;5014375;28;20179;-81
2021/12/20 07:20:58;;;;;;;12.80;4.20;;;5.30;99.90;;;;;;5013660;28;20658;-82
2021/12/20 07:23:24;;;;;;;12.10;4.13;;;5.30;99.90;;;;;;5014103;28;20254;-82
2021/12/20 07:25:50;;;;;;;10.70;3.60;;;5.30;99.90;;;;;;5014138;28;20182;-80
2021/12/20 07:28:16;;;;;;;12.00;4.30;;;5.30;99.90;;;;;;5013883;28;20195;-81
2021/12/20 07:30:45;;;;;;;11.37;4.30;;;5.30;99.90;;;;;;5028975;28;20209;-81
2021/12/20 07:33:10;;;;;;;13.32;2.97;;;5.30;99.90;;;;;;5012778;28;20191;-82
2021/12/20 07:35:36;;;;;;;7.27;2.77;;;5.20;99.90;;;;;;5012753;28;20639;-81
2021/12/20 07:38:03;;;;;;;25.90;4.57;;;5.20;99.90;;;;;;5014343;28;20177;-81
2021/12/20 07:40:29;;;;;;;14.48;3.47;;;5.20;99.90;;;;;;5013480;28;20195;-81
2021/12/20 07:42:56;;;;;;;11.23;3.25;;;5.20;99.90;;;;;;5013615;28;20221;-81
2021/12/20 07:45:22;;;;;;;10.05;4.10;;;5.20;99.90;;;;;;5013868;28;20229;-81
2021/12/20 07:47:49;;;;;;;12.50;4.35;;;5.20;99.90;;;;;;5013803;28;20208;-81
2021/12/20 07:50:17;;;;;;;13.60;4.68;;;5.30;99.90;;;;;;5013404;28;20196;-81
2021/12/20 07:52:44;;;;;;;11.13;3.83;;;5.30;99.90;;;;;;5013877;28;20183;-81
2021/12/20 07:55:09;;;;;;;11.93;3.55;;;5.30;99.90;;;;;;5012408;28;20651;-81
2021/12/20 07:57:37;;;;;;;9.90;2.90;;;5.30;99.90;;;;;;5013653;28;20189;-81
2021/12/20 08:00:05;;;;;;;11.10;3.47;;;5.30;99.90;;;;;;5013248;28;20514;-81
2021/12/20 08:02:30;;;;;;;11.68;3.75;;;5.30;99.90;;;;;;5013819;28;20203;-81
2021/12/20 08:04:56;;;;;;;10.67;3.83;;;5.30;99.90;;;;;;5013595;28;20635;-81
2021/12/20 08:07:22;;;;;;;12.87;3.70;;;5.30;99.90;;;;;;5012028;28;20265;-81
2021/12/20 08:09:50;;;;;;;17.30;4.23;;;5.30;99.90;;;;;;5013271;28;20186;-82
2021/12/20 08:12:16;;;;;;;15.50;4.28;;;5.40;99.90;;;;;;5012155;28;20549;-82
2021/12/20 08:14:42;;;;;;;14.65;4.20;;;5.40;99.90;;;;;;5013334;28;20170;-81
2021/12/20 08:17:07;;;;;;;7.53;3.37;;;5.40;99.90;;;;;;5013445;28;20669;-82
2021/12/20 08:19:33;;;;;;;7.53;3.17;;;5.40;99.90;;;;;;5012910;28;20189;-81
2021/12/20 08:21:59;;;;;;;12.73;3.40;;;5.60;99.90;;;;;;5013342;28;20223;-80
2021/12/20 08:24:24;;;;;;;17.50;3.70;;;5.50;99.90;;;;;;5013349;28;20660;-80
2021/12/20 08:26:50;;;;;;;14.53;3.70;;;5.60;99.90;;;;;;5012012;28;20278;-80
2021/12/20 08:29:15;;;;;;;18.10;6.23;;;5.60;99.90;;;;;;5027946;28;20195;-80
2021/12/20 08:31:41;;;;;;;18.70;3.80;;;5.60;99.90;;;;;;5013033;28;20199;-80
2021/12/20 08:34:07;;;;;;;17.20;4.53;;;5.60;99.90;;;;;;5028388;28;20640;-80
2021/12/20 08:36:32;;;;;;;11.40;3.33;;;5.60;99.90;;;;;;5011959;28;20274;-80
2021/12/20 08:38:58;;;;;;;28.30;5.27;;;5.70;99.90;;;;;;5013131;28;20266;-80
2021/12/20 08:41:24;;;;;;;11.00;4.33;;;5.70;99.90;;;;;;5012620;28;20210;-80
2021/12/20 08:43:50;;;;;;;11.53;3.30;;;5.80;99.90;;;;;;5012939;28;20177;-80
2021/12/20 08:46:16;;;;;;;23.42;4.55;;;5.80;99.90;;;;;;5013085;28;20437;-80
2021/12/20 08:48:45;;;;;;;12.50;3.67;;;5.80;99.90;;;;;;5013381;28;20207;-80
2021/12/20 08:51:11;;;;;;;24.58;4.50;;;5.80;99.90;;;;;;5012903;28;20612;-80
2021/12/20 08:53:37;;;;;;;10.35;3.10;;;5.80;99.90;;;;;;5011853;28;20213;-80
2021/12/20 08:56:06;;;;;;;8.17;3.40;;;5.90;99.90;;;;;;5013135;28;20207;-80
2021/12/20 08:58:32;;;;;;;18.33;3.80;;;5.80;99.90;;;;;;5013066;28;20709;-80
2021/12/20 09:01:05;;;;;;;15.90;3.40;;;5.80;99.90;;;;;;5013757;28;20226;-80
2021/12/20 09:03:33;;;;;;;23.42;4.78;;;5.70;99.90;;;;;;5027415;28;20227;-80
2021/12/20 09:05:59;;;;;;;20.10;4.03;;;5.80;99.90;;;;;;5012799;28;20261;-80
2021/12/20 09:08:24;;;;;;;12.27;4.07;;;5.70;99.90;;;;;;5012672;28;20263;-80
2021/12/20 09:10:50;;;;;;;15.23;3.80;;;5.80;99.90;;;;;;5011286;28;20253;-79
2021/12/20 09:13:16;;;;;;;18.85;4.13;;;5.80;99.90;;;;;;5011614;28;20598;-79
2021/12/20 09:15:42;;;;;;;15.57;4.10;;;5.80;99.90;;;;;;5012949;28;20176;-80
2021/12/20 09:18:11;;;;;;;15.23;3.80;;;5.80;99.90;;;;;;5012532;28;20933;-80
2021/12/20 09:20:38;;;;;;;25.23;5.13;;;5.80;99.90;;;;;;5015858;28;20334;-80
2021/12/20 09:23:06;;;;;;;14.73;5.03;;;5.70;99.90;;;;;;5016468;28;20181;-80
2021/12/20 09:25:38;;;;;;;18.85;4.80;;;5.70;99.90;;;;;;5016373;28;20176;-80
2021/12/20 09:28:08;;;;;;;21.08;4.25;;;5.60;99.90;;;;;;5016098;28;20276;-80
2021/12/20 09:30:38;;;;;;;20.27;4.53;;;5.50;99.90;;;;;;5015754;28;20198;-80
2021/12/20 09:33:04;;;;;;;20.08;5.18;;;5.60;99.90;;;;;;5016148;28;20182;-80
2021/12/20 09:35:31;;;;;;;16.27;4.07;;;5.50;99.90;;;;;;5031306;28;20175;-80
2021/12/20 09:37:57;;;;;;;21.02;4.68;;;5.50;99.90;;;;;;5016076;28;20172;-80
2021/12/20 09:40:32;;;;;;;18.03;4.80;;;5.50;99.90;;;;;;5015560;28;20194;-80
2021/12/20 09:43:01;;;;;;;19.27;4.25;;;5.50;99.90;;;;;;5015950;28;20214;-80
2021/12/20 09:45:27;;;;;;;26.60;5.45;;;5.50;99.90;;;;;;5014930;28;20277;-81
2021/12/20 09:47:53;;;;;;;27.53;5.20;;;5.40;99.90;;;;;;5016062;28;20270;-81
2021/12/20 09:50:19;;;;;;;17.37;5.20;;;5.40;99.90;;;;;;5015345;28;20914;-80
2021/12/20 09:52:46;;;;;;;15.40;4.63;;;5.40;99.90;;;;;;5015807;28;20262;-80
2021/12/20 09:55:14;;;;;;;21.13;4.20;;;5.40;99.90;;;;;;5015761;28;20203;-80
2021/12/20 09:57:42;;;;;;;15.88;4.55;;;5.50;99.90;;;;;;5015668;28;20245;-80
2021/12/20 10:00:11;;;;;;;16.60;4.32;;;5.60;99.90;;;;;;5015345;28;20166;-80
2021/12/20 10:02:37;;;;;;;20.45;5.82;;;5.60;99.90;;;;;;5015393;28;20248;-80
2021/12/20 10:05:03;;;;;;;25.33;6.17;;;5.70;99.90;;;;;;5015627;28;20179;-81
2021/12/20 10:07:29;;;;;;;12.25;4.00;;;5.70;99.90;;;;;;5015559;28;20179;-80
2021/12/20 10:09:56;;;;;;;15.88;4.53;;;5.80;99.90;;;;;;5015363;28;20167;-81
2021/12/20 10:12:26;;;;;;;16.15;4.43;;;6.00;99.90;;;;;;5015521;28;20313;-81
2021/12/20 10:15:00;;;;;;;13.82;3.67;;;6.20;99.90;;;;;;5030752;28;20663;-81
2021/12/20 10:17:30;;;;;;;19.17;3.92;;;6.20;99.90;;;;;;5015216;28;20217;-81
2021/12/20 10:20:12;;;;;;;17.27;4.07;;;6.40;99.90;;;;;;5015079;28;20188;-81
2021/12/20 10:22:37;;;;;;;14.25;3.88;;;6.40;99.90;;;;;;5015168;28;20206;-81
2021/12/20 10:25:20;;;;;;;21.40;5.20;;;6.30;99.90;;;;;;5015264;28;20523;-81
2021/12/20 10:27:45;;;;;;;16.92;3.72;;;6.30;99.90;;;;;;5015020;28;20187;-81
2021/12/20 10:30:28;;;;;;;12.20;3.83;;;6.50;99.90;;;;;;5013942;28;20175;-81
2021/12/20 10:32:56;;;;;;;14.80;4.88;;;6.80;99.90;;;;;;5014916;28;20174;-80
2021/12/20 10:35:36;;;;;;;14.80;5.13;;;6.90;99.90;;;;;;5014951;28;20185;-80
2021/12/20 10:38:25;;;;;;;12.88;4.25;;;7.00;99.90;;;;;;5015163;28;20167;-80
2021/12/20 10:40:54;;;;;;;19.45;4.63;;;7.00;99.90;;;;;;5013120;28;20201;-82
2021/12/20 10:43:22;;;;;;;18.35;4.22;;;7.40;99.90;;;;;;5014853;28;20308;-82
2021/12/20 10:45:50;;;;;;;9.80;3.38;;;7.50;99.90;;;;;;5014820;28;20566;-81
2021/12/20 10:48:16;;;;;;;16.77;3.70;;;7.60;99.90;;;;;;5014800;28;20174;-81
2021/12/20 10:50:44;;;;;;;12.40;3.50;;;7.40;99.90;;;;;;5014184;28;20282;-81
2021/12/20 10:53:22;;;;;;;15.00;3.80;;;7.40;99.90;;;;;;5014437;28;20182;-80
2021/12/20 10:56:02;;;;;;;16.10;4.90;;;7.60;99.90;;;;;;5014756;28;20414;-80
2021/12/20 10:58:33;;;;;;;18.37;4.30;;;7.90;99.90;;;;;;5014569;28;20412;-81
2021/12/20 11:03:58;;;;;;;17.35;4.60;;;8.10;99.90;;;;;;4993613;28;20189;-80
2021/12/20 11:06:26;;;;;;;13.68;3.97;;;8.10;99.90;;;;;;5014504;28;20296;-81
2021/12/20 11:09:05;;;;;;;16.13;3.75;;;8.10;99.90;;;;;;5014492;28;20261;-80
2021/12/20 11:11:40;;;;;;;23.27;4.60;;;8.30;99.90;;;;;;5029394;28;20214;-81
2021/12/20 11:14:08;;;;;;;13.20;3.65;;;8.30;99.90;;;;;;5029415;28;20421;-82
2021/12/20 11:16:46;;;;;;;10.80;3.63;;;8.30;99.90;;;;;;5013121;28;20191;-81
2021/12/20 11:19:34;;;;;;;15.93;3.75;;;8.30;99.90;;;;;;5013843;28;20651;-82
2021/12/20 11:22:04;;;;;;;14.20;4.30;;;8.70;99.90;;;;;;5014164;28;20268;-82
2021/12/20 11:24:44;;;;;;;11.73;3.90;;;8.60;99.90;;;;;;5013040;28;20249;-79
2021/12/20 11:27:23;;;;;;;18.40;4.37;;;8.60;99.90;;;;;;5014362;28;20171;-81
2021/12/20 11:29:52;;;;;;;15.97;3.80;;;8.80;99.90;;;;;;5014247;28;20465;-81
2021/12/20 11:32:20;;;;;;;19.20;4.00;;;8.90;99.90;;;;;;5014638;28;20552;-81
2021/12/20 11:34:45;;;;;;;13.83;3.30;;;9.10;99.90;;;;;;5013989;28;20414;-81
2021/12/20 11:37:14;;;;;;;12.23;3.23;;;9.10;99.90;;;;;;5012575;28;20436;-80
2021/12/20 11:39:41;;;;;;;9.37;3.10;;;9.10;99.90;;;;;;5013663;28;20182;-80
2021/12/20 11:42:08;;;;;;;11.25;2.80;;;9.00;99.90;;;;;;5013305;28;20480;-82
2021/12/20 11:44:37;;;;;;;12.70;3.47;;;9.20;99.90;;;;;;5014063;28;20178;-81
2021/12/20 11:47:08;;;;;;;12.90;3.67;;;9.30;99.90;;;;;;5013854;28;20781;-81
2021/12/20 11:49:36;;;;;;;9.13;2.40;;;9.40;99.90;;;;;;5013417;28;20409;-81
2021/12/20 11:52:08;;;;;;;11.90;3.50;;;9.30;99.90;;;;;;5013887;28;20503;-81
2021/12/20 11:54:47;;;;;;;12.70;4.03;;;9.70;99.90;;;;;;5013714;28;20391;-81
2021/12/20 11:57:42;;;;;;;11.83;3.17;;;9.60;99.90;;;;;;5013682;28;20394;-81
2021/12/20 12:00:19;;;;;;;15.00;3.80;;;9.50;99.90;;;;;;5012458;28;20426;-80
2021/12/20 12:02:46;;;;;;;9.90;3.17;;;9.40;99.90;;;;;;5013562;28;20540;-81
2021/12/20 12:05:26;;;;;;;11.83;2.70;;;9.80;99.90;;;;;;5013468;28;20426;-81
2021/12/20 12:07:52;;;;;;;7.00;2.73;;;9.90;99.90;;;;;;5012345;28;20428;-80
2021/12/20 12:10:27;;;;;;;8.77;3.00;;;9.90;99.90;;;;;;5013137;28;20413;-80
2021/12/20 12:13:00;;;;;;;8.60;2.90;;;10.20;99.90;;;;;;5013792;28;20271;-80
2021/12/20 12:15:43;;;;;;;11.33;2.70;;;10.20;99.90;;;;;;5012218;28;20421;-80
2021/12/20 12:18:10;;;;;;;8.73;3.00;;;10.20;99.90;;;;;;5012344;28;20445;-80
2021/12/20 12:20:52;;;;;;;18.83;3.70;;;10.20;99.90;;;;;;5013189;28;20455;-80
2021/12/20 12:23:28;;;;;;;7.47;2.60;;;10.30;99.90;;;;;;5013446;28;20402;-80
2021/12/20 12:26:00;;;;;;;11.67;3.37;;;10.30;99.90;;;;;;5013656;28;20406;-79
2021/12/20 12:28:47;;;;;;;11.50;4.20;;;9.70;99.90;;;;;;5013271;28;20432;-81
2021/12/20 12:31:14;;;;;;;10.00;3.23;;;10.20;99.90;;;;;;5012808;28;20445;-80
2021/12/20 12:33:41;;;;;;;10.60;2.90;;;10.00;99.90;;;;;;5011909;28;20430;-80
2021/12/20 12:36:30;;;;;;;13.83;3.10;;;10.30;99.90;;;;;;5013378;28;20417;-80
2021/12/20 12:39:00;;;;;;;8.65;2.58;;;10.60;99.90;;;;;;5028485;28;20926;-80
2021/12/20 12:41:31;;;;;;;4.80;2.10;;;10.60;99.90;;;;;;5012621;28;20215;-80
2021/12/20 12:44:06;;;;;;;12.50;2.70;;;10.60;99.90;;;;;;5013192;28;20458;-79
2021/12/20 12:46:41;;;;;;;15.77;2.47;;;10.30;99.90;;;;;;5013241;28;20638;-80
2021/12/20 12:49:22;;;;;;;15.02;2.25;;;10.30;99.90;;;;;;5011809;28;20457;-80
2021/12/20 12:51:49;;;;;;;7.07;2.67;;;10.50;99.90;;;;;;5012978;28;20201;-80
2021/12/20 12:54:35;;;;;;;11.13;3.55;;;10.10;99.90;;;;;;5014389;28;20178;-80
2021/12/20 12:57:10;;;;;;;14.25;3.25;;;10.50;99.90;;;;;;5016654;28;20710;-81
2021/12/20 12:59:49;;;;;;;6.13;2.13;;;10.60;99.90;;;;;;5015247;28;20667;-80
2021/12/20 13:02:25;;;;;;;5.88;1.98;;;10.80;99.90;;;;;;5016905;28;20202;-80
2021/12/20 13:04:56;;;;;;;10.15;3.15;;;10.90;99.90;;;;;;5017137;28;20221;-79